sensor_id;sensor_type;location;lat;lon;timestamp;temperature;humidity
64561;DHT22;50960;46.838;16.838;2023-03-15T17:52:28;7.70;45.50
64561;DHT22;50960;46.838;16.838;2023-03-15T17:54:56;7.40;46.40
64561;DHT22;50960;46.838;16.838;2023-03-15T17:57:24;7.30;47.00
64561;DHT22;50960;46.838;16.838;2023-03-15T17:59:51;7.40;47.20
64561;DHT22;50960;46.838;16.838;2023-03-15T18:02:22;7.20;47.20
64561;DHT22;50960;46.838;16.838;2023-03-15T18:04:52;7.30;47.60
64561;DHT22;50960;46.838;16.838;2023-03-15T18:07:29;7.20;47.90
64561;DHT22;50960;46.838;16.838;2023-03-15T18:09:56;7.20;48.20
64561;DHT22;50960;46.838;16.838;2023-03-15T18:12:22;7.20;48.50
64561;DHT22;50960;46.838;16.838;2023-03-15T18:14:49;7.20;48.50
64561;DHT22;50960;46.838;16.838;2023-03-15T18:17:15;7.10;48.60
64561;DHT22;50960;46.838;16.838;2023-03-15T18:19:42;7.00;49.10
64561;DHT22;50960;46.838;16.838;2023-03-15T18:22:14;7.00;49.30
64561;DHT22;50960;46.838;16.838;2023-03-15T18:24:41;6.90;50.00
64561;DHT22;50960;46.838;16.838;2023-03-15T18:27:07;6.90;50.10
64561;DHT22;50960;46.838;16.838;2023-03-15T18:30:02;6.90;50.00
64561;DHT22;50960;46.838;16.838;2023-03-15T18:32:29;6.80;49.90
64561;DHT22;50960;46.838;16.838;2023-03-15T18:35:08;6.80;49.80
64561;DHT22;50960;46.838;16.838;2023-03-15T18:37:37;6.80;49.80
64561;DHT22;50960;46.838;16.838;2023-03-15T18:40:05;6.70;50.10
64561;DHT22;50960;46.838;16.838;2023-03-15T18:42:33;6.60;50.10
64561;DHT22;50960;46.838;16.838;2023-03-15T18:45:00;6.60;50.20
64561;DHT22;50960;46.838;16.838;2023-03-15T18:47:26;6.50;50.50
64561;DHT22;50960;46.838;16.838;2023-03-15T18:49:53;6.50;50.50
64561;DHT22;50960;46.838;16.838;2023-03-15T18:52:19;6.40;50.70
64561;DHT22;50960;46.838;16.838;2023-03-15T18:54:47;6.40;50.90
64561;DHT22;50960;46.838;16.838;2023-03-15T18:57:14;6.40;51.20
64561;DHT22;50960;46.838;16.838;2023-03-15T18:59:40;6.30;51.10
64561;DHT22;50960;46.838;16.838;2023-03-15T19:02:08;6.30;51.40
64561;DHT22;50960;46.838;16.838;2023-03-15T19:04:34;6.30;51.50
64561;DHT22;50960;46.838;16.838;2023-03-15T19:07:01;6.20;51.70
64561;DHT22;50960;46.838;16.838;2023-03-15T19:09:27;6.20;51.90
64561;DHT22;50960;46.838;16.838;2023-03-15T19:11:53;6.10;51.50
64561;DHT22;50960;46.838;16.838;2023-03-15T19:14:20;6.10;52.00
64561;DHT22;50960;46.838;16.838;2023-03-15T19:16:46;6.00;51.70
64561;DHT22;50960;46.838;16.838;2023-03-15T19:19:14;6.10;51.60
64561;DHT22;50960;46.838;16.838;2023-03-15T19:21:42;6.10;51.50
64561;DHT22;50960;46.838;16.838;2023-03-15T19:24:08;6.00;51.80
64561;DHT22;50960;46.838;16.838;2023-03-15T19:26:35;5.90;51.80
64561;DHT22;50960;46.838;16.838;2023-03-15T19:29:01;5.90;52.10
64561;DHT22;50960;46.838;16.838;2023-03-15T19:31:30;5.80;52.30
64561;DHT22;50960;46.838;16.838;2023-03-15T19:33:57;5.80;52.20
64561;DHT22;50960;46.838;16.838;2023-03-15T19:36:24;5.80;52.60
64561;DHT22;50960;46.838;16.838;2023-03-15T19:38:51;5.60;52.50
64561;DHT22;50960;46.838;16.838;2023-03-15T19:41:18;5.60;53.00
64561;DHT22;50960;46.838;16.838;2023-03-15T19:43:44;5.50;53.20
64561;DHT22;50960;46.838;16.838;2023-03-15T19:46:12;5.40;53.20
64561;DHT22;50960;46.838;16.838;2023-03-15T19:48:40;5.40;53.70
64561;DHT22;50960;46.838;16.838;2023-03-15T19:51:07;5.30;53.90
64561;DHT22;50960;46.838;16.838;2023-03-15T19:53:33;5.20;54.10
64561;DHT22;50960;46.838;16.838;2023-03-15T19:56:06;5.20;54.20
64561;DHT22;50960;46.838;16.838;2023-03-15T19:58:32;5.10;54.30
64561;DHT22;50960;46.838;16.838;2023-03-15T20:00:59;5.10;54.40
64561;DHT22;50960;46.838;16.838;2023-03-15T20:03:26;5.10;54.40
64561;DHT22;50960;46.838;16.838;2023-03-15T20:05:53;5.00;54.30
64561;DHT22;50960;46.838;16.838;2023-03-15T20:08:19;4.90;55.00
64561;DHT22;50960;46.838;16.838;2023-03-15T20:10:45;4.90;55.00
64561;DHT22;50960;46.838;16.838;2023-03-15T20:13:13;4.80;54.90
64561;DHT22;50960;46.838;16.838;2023-03-15T20:15:40;4.80;55.00
64561;DHT22;50960;46.838;16.838;2023-03-15T20:18:06;4.80;55.30
64561;DHT22;50960;46.838;16.838;2023-03-15T20:20:37;4.60;55.40
64561;DHT22;50960;46.838;16.838;2023-03-15T20:23:05;4.60;55.90
64561;DHT22;50960;46.838;16.838;2023-03-15T20:25:32;4.60;56.50
64561;DHT22;50960;46.838;16.838;2023-03-15T20:27:59;4.60;56.10
64561;DHT22;50960;46.838;16.838;2023-03-15T20:30:25;4.50;56.70
64561;DHT22;50960;46.838;16.838;2023-03-15T20:32:52;4.40;56.60
64561;DHT22;50960;46.838;16.838;2023-03-15T20:35:19;4.40;57.20
64561;DHT22;50960;46.838;16.838;2023-03-15T20:37:48;4.30;56.60
64561;DHT22;50960;46.838;16.838;2023-03-15T20:40:15;4.30;56.90
64561;DHT22;50960;46.838;16.838;2023-03-15T20:42:42;4.30;56.90
64561;DHT22;50960;46.838;16.838;2023-03-15T20:45:13;4.30;57.10
64561;DHT22;50960;46.838;16.838;2023-03-15T20:47:40;4.20;57.10
64561;DHT22;50960;46.838;16.838;2023-03-15T20:50:08;4.30;57.60
64561;DHT22;50960;46.838;16.838;2023-03-15T20:52:35;4.30;56.80
64561;DHT22;50960;46.838;16.838;2023-03-15T20:55:01;4.30;56.90
64561;DHT22;50960;46.838;16.838;2023-03-15T20:57:31;4.30;56.90
64561;DHT22;50960;46.838;16.838;2023-03-15T20:59:57;4.20;57.40
64561;DHT22;50960;46.838;16.838;2023-03-15T21:02:24;4.20;57.70
64561;DHT22;50960;46.838;16.838;2023-03-15T21:04:52;4.20;57.80
64561;DHT22;50960;46.838;16.838;2023-03-15T21:07:18;4.10;57.80
64561;DHT22;50960;46.838;16.838;2023-03-15T21:09:45;4.10;57.60
64561;DHT22;50960;46.838;16.838;2023-03-15T21:12:11;4.10;57.90
64561;DHT22;50960;46.838;16.838;2023-03-15T21:14:38;4.00;58.30
64561;DHT22;50960;46.838;16.838;2023-03-15T21:17:06;3.90;58.30
